createdAt,value
2023-04-19T00:00:25.635Z,101026.69
2023-04-19T00:00:57.029Z,101025.84
2023-04-19T00:01:28.509Z,101030.22
2023-04-19T00:01:59.975Z,101029.38
2023-04-19T00:02:31.574Z,101025.00
2023-04-19T00:03:03.300Z,101024.81
2023-04-19T00:03:35.172Z,101025.31
2023-04-19T00:04:06.920Z,101023.41
2023-04-19T00:04:38.512Z,101027.25
2023-04-19T00:05:10.098Z,101026.41
2023-04-19T00:05:41.731Z,101026.97
2023-04-19T00:06:13.175Z,101024.53
2023-04-19T00:06:44.688Z,101018.53
2023-04-19T00:07:16.221Z,101020.69
2023-04-19T00:07:47.981Z,101013.59
2023-04-19T00:08:19.445Z,101019.59
2023-04-19T00:08:51.072Z,101020.44
2023-04-19T00:09:22.491Z,101016.63
2023-04-19T00:09:54.020Z,101019.03
2023-04-19T00:10:25.504Z,101016.38
2023-04-19T00:10:57.012Z,101019.34
2023-04-19T00:11:28.423Z,101011.69
2023-04-19T00:11:59.949Z,101015.50
2023-04-19T00:12:31.630Z,101013.84
2023-04-19T00:13:03.178Z,101018.78
2023-04-19T00:13:37.217Z,101016.31
2023-04-19T00:14:08.644Z,101014.97
2023-04-19T00:14:40.075Z,101011.44
2023-04-19T00:15:11.552Z,101011.13
2023-04-19T00:15:43.054Z,101011.38
2023-04-19T00:16:14.507Z,101014.63
2023-04-19T00:16:46.050Z,101014.94
2023-04-19T00:17:17.498Z,101011.09
2023-04-19T00:17:49.043Z,101014.63
2023-04-19T00:18:20.563Z,101011.09
2023-04-19T00:18:52.025Z,101019.00
2023-04-19T00:19:23.533Z,101010.81
2023-04-19T00:19:54.985Z,101010.63
2023-04-19T00:20:26.532Z,101012.22
2023-04-19T00:20:58.110Z,101008.41
2023-04-19T00:21:29.569Z,101017.41
2023-04-19T00:22:01.017Z,101006.75
2023-04-19T00:22:32.475Z,101009.75
2023-04-19T00:23:04.118Z,101006.75
2023-04-19T00:23:35.518Z,101004.59
2023-04-19T00:24:06.949Z,101008.72
2023-04-19T00:24:38.353Z,101004.59
2023-04-19T00:25:09.825Z,101004.28
2023-04-19T00:25:41.202Z,101007.28
2023-04-19T00:26:12.755Z,101008.63
2023-04-19T00:26:44.177Z,101005.91
2023-04-19T00:27:15.617Z,101006.72
2023-04-19T00:27:47.044Z,101003.47
2023-04-19T00:28:18.426Z,101008.09
2023-04-19T00:28:49.832Z,101009.19
2023-04-19T00:29:21.237Z,101001.00
2023-04-19T00:29:52.696Z,101004.81
2023-04-19T00:30:24.136Z,101003.22
2023-04-19T00:30:55.618Z,101003.22
2023-04-19T00:31:27.210Z,101009.50
2023-04-19T00:31:58.652Z,101001.84
2023-04-19T00:32:30.164Z,100999.09
2023-04-19T00:33:01.734Z,101007.53
2023-04-19T00:33:33.261Z,101006.72
2023-04-19T00:34:04.756Z,101005.91
2023-04-19T00:34:36.159Z,100999.63
2023-04-19T00:35:07.571Z,101000.19
2023-04-19T00:35:38.984Z,101005.13
2023-04-19T00:36:10.423Z,101007.63
2023-04-19T00:36:41.946Z,101006.25
2023-04-19T00:37:13.463Z,101010.88
2023-04-19T00:37:44.932Z,101004.59
2023-04-19T00:38:16.405Z,101004.09
2023-04-19T00:38:47.824Z,101005.41
2023-04-19T00:39:19.258Z,101011.16
2023-04-19T00:39:50.685Z,101007.59
2023-04-19T00:40:22.130Z,101010.88
2023-04-19T00:40:53.559Z,101003.25
2023-04-19T00:41:24.942Z,101005.16
2023-04-19T00:41:56.414Z,101003.22
2023-04-19T00:42:27.833Z,100999.09
2023-04-19T00:42:59.280Z,100995.56
2023-04-19T00:43:30.715Z,101010.00
2023-04-19T00:44:02.144Z,100998.06
2023-04-19T00:44:33.545Z,101002.69
2023-04-19T00:45:05.290Z,100998.06
2023-04-19T00:45:36.757Z,100998.84
2023-04-19T00:46:08.216Z,101000.50
2023-04-19T00:46:39.766Z,101004.28
2023-04-19T00:47:11.327Z,100999.66
2023-04-19T00:47:42.757Z,101001.00
2023-04-19T00:48:14.236Z,101000.75
2023-04-19T00:48:45.740Z,100998.84
2023-04-19T00:49:17.198Z,101001.00
2023-04-19T00:49:48.636Z,101001.00
2023-04-19T00:50:20.109Z,100998.59
2023-04-19T00:50:51.530Z,100996.13
2023-04-19T00:51:23.005Z,100997.19
2023-04-19T00:51:54.422Z,100998.06
2023-04-19T00:52:25.872Z,101000.50
2023-04-19T00:52:57.311Z,100998.31
2023-04-19T00:53:28.749Z,100999.09
2023-04-19T00:54:00.163Z,100999.66
2023-04-19T00:54:31.558Z,100996.69
2023-04-19T00:55:03.061Z,100997.78
2023-04-19T00:55:34.447Z,100995.03
2023-04-19T00:56:05.990Z,100995.56
2023-04-19T00:56:37.429Z,100998.28
2023-04-19T00:57:08.832Z,101000.50
2023-04-19T00:57:40.286Z,100997.19
2023-04-19T00:58:11.839Z,101002.13
2023-04-19T00:58:43.446Z,100997.19
2023-04-19T00:59:14.894Z,100997.97
2023-04-19T00:59:46.291Z,100997.41
2023-04-19T01:00:17.794Z,100996.91
2023-04-19T01:00:49.204Z,100996.06
2023-04-19T01:01:20.603Z,100999.88
2023-04-19T01:01:52.137Z,100997.16
2023-04-19T01:02:23.828Z,100994.69
2023-04-19T01:02:55.456Z,101001.53
2023-04-19T01:03:27.193Z,100994.94
2023-04-19T01:03:59.065Z,100993.63
2023-04-19T01:04:30.669Z,100996.34
2023-04-19T01:05:02.235Z,100997.41
2023-04-19T01:05:33.628Z,100999.88
2023-04-19T01:06:05.046Z,100988.44
2023-04-19T01:06:36.524Z,100997.69
2023-04-19T01:07:07.969Z,100994.13
2023-04-19T01:07:39.388Z,100991.66
2023-04-19T01:08:10.854Z,101005.84
2023-04-19T01:08:42.324Z,100992.78
2023-04-19T01:09:13.725Z,100996.03
2023-04-19T01:09:45.268Z,100996.59
2023-04-19T01:10:16.700Z,100994.44
2023-04-19T01:10:48.125Z,100992.84
2023-04-19T01:11:19.548Z,100988.47
2023-04-19T01:11:50.981Z,100996.38
2023-04-19T01:12:22.442Z,100996.06
2023-04-19T01:12:53.924Z,100999.38
2023-04-19T01:13:25.406Z,100993.63
2023-04-19T01:13:56.824Z,100986.25
2023-04-19T01:14:28.227Z,100994.19
2023-04-19T01:15:00.794Z,100985.47
2023-04-19T01:15:32.268Z,100987.91
2023-04-19T01:16:03.746Z,100986.03
2023-04-19T01:16:35.150Z,100987.91
2023-04-19T01:17:06.569Z,100984.13
2023-04-19T01:17:38.272Z,100981.94
2023-04-19T01:18:09.771Z,100986.59
2023-04-19T01:18:41.186Z,100981.94
2023-04-19T01:19:12.643Z,100986.31
2023-04-19T01:19:44.085Z,100986.81
2023-04-19T01:20:15.563Z,100982.72
2023-04-19T01:20:47.021Z,100977.28
2023-04-19T01:21:18.437Z,100980.00
2023-04-19T01:21:49.864Z,100982.97
2023-04-19T01:22:21.498Z,100984.66
2023-04-19T01:22:52.983Z,100984.19
2023-04-19T01:23:24.355Z,100983.59
2023-04-19T01:23:55.832Z,100976.53
2023-04-19T01:24:27.257Z,100984.41
2023-04-19T01:24:58.692Z,100978.69
2023-04-19T01:25:30.139Z,100976.28
2023-04-19T01:26:01.630Z,100975.72
2023-04-19T01:26:33.091Z,100982.50
2023-04-19T01:27:04.512Z,100978.69
2023-04-19T01:27:36.031Z,100976.78
2023-04-19T01:28:07.658Z,100976.53
2023-04-19T01:28:39.104Z,100979.56
2023-04-19T01:29:10.623Z,100976.28
2023-04-19T01:29:42.145Z,100977.34
2023-04-19T01:30:13.576Z,100975.66
2023-04-19T01:30:45.008Z,100977.88
2023-04-19T01:31:16.515Z,100978.72
2023-04-19T01:31:47.979Z,100975.41
2023-04-19T01:32:19.598Z,100977.06
2023-04-19T01:32:51.014Z,100967.22
2023-04-19T01:33:22.517Z,100975.94
2023-04-19T01:33:53.956Z,100980.03
2023-04-19T01:34:25.558Z,100977.00
2023-04-19T01:34:57.055Z,100978.09
2023-04-19T01:35:28.645Z,100979.22
2023-04-19T01:36:00.115Z,100978.69
2023-04-19T01:36:31.721Z,100981.69
2023-04-19T01:37:03.205Z,100978.16
2023-04-19T01:37:34.723Z,100979.25
2023-04-19T01:38:06.187Z,100976.50
2023-04-19T01:38:37.685Z,100977.34
2023-04-19T01:39:09.233Z,100981.16
2023-04-19T01:39:40.711Z,100973.75
2023-04-19T01:40:12.148Z,100975.94
2023-04-19T01:40:43.619Z,100983.88
2023-04-19T01:41:15.025Z,100975.97
2023-04-19T01:41:46.438Z,100974.06
2023-04-19T01:42:18.012Z,100972.41
2023-04-19T01:42:49.488Z,100973.25
2023-04-19T01:43:20.910Z,100979.22
2023-04-19T01:43:52.315Z,100976.19
2023-04-19T01:44:23.725Z,100977.31
2023-04-19T01:44:55.137Z,100971.59
2023-04-19T01:45:26.617Z,100974.88
2023-04-19T01:45:58.092Z,100975.41
2023-04-19T01:46:29.493Z,100973.75
2023-04-19T01:47:00.962Z,100968.63
2023-04-19T01:47:32.496Z,100974.31
2023-04-19T01:48:03.930Z,100967.75
2023-04-19T01:48:35.443Z,100971.88
2023-04-19T01:49:06.871Z,100974.84
2023-04-19T01:49:38.326Z,100973.25
2023-04-19T01:50:09.867Z,100971.59
2023-04-19T01:50:41.286Z,100967.50
2023-04-19T01:51:12.690Z,100974.59
2023-04-19T01:51:44.077Z,100977.81
2023-04-19T01:52:15.479Z,100973.47
2023-04-19T01:52:46.929Z,100977.28
2023-04-19T01:53:18.303Z,100972.63
2023-04-19T01:53:49.731Z,100971.56
2023-04-19T01:54:21.127Z,100970.47
2023-04-19T01:54:52.593Z,100967.50
2023-04-19T01:55:24.029Z,100975.38
2023-04-19T01:55:55.421Z,100974.84
2023-04-19T01:56:26.864Z,100974.84
2023-04-19T01:56:58.324Z,100968.63
2023-04-19T01:57:29.744Z,100967.56
2023-04-19T01:58:01.196Z,100972.75
2023-04-19T01:58:32.650Z,100968.09
2023-04-19T01:59:04.085Z,100970.56
2023-04-19T01:59:35.510Z,100968.88
2023-04-19T02:00:06.970Z,100976.53
2023-04-19T02:00:38.396Z,100973.28
2023-04-19T02:01:09.928Z,100972.41
2023-04-19T02:01:41.446Z,100973.03
2023-04-19T02:02:12.992Z,100974.88
2023-04-19T02:02:44.603Z,100971.59
2023-04-19T02:03:16.400Z,100972.69
2023-04-19T02:03:48.197Z,100969.97
2023-04-19T02:04:19.785Z,100969.44
2023-04-19T02:04:51.307Z,100971.06
2023-04-19T02:05:22.699Z,100971.91
2023-04-19T02:05:54.122Z,100974.88
2023-04-19T02:06:25.552Z,100969.19
2023-04-19T02:06:56.978Z,100970.00
2023-04-19T02:07:28.364Z,100974.38
2023-04-19T02:07:59.776Z,100968.41
2023-04-19T02:08:31.240Z,100967.56
2023-04-19T02:09:02.655Z,100963.22
2023-04-19T02:09:34.069Z,100965.97
2023-04-19T02:10:05.516Z,100977.13
2023-04-19T02:10:36.948Z,100964.06
2023-04-19T02:11:08.407Z,100972.19
2023-04-19T02:11:39.837Z,100968.41
2023-04-19T02:12:11.259Z,100970.81
2023-04-19T02:12:42.716Z,100979.28
2023-04-19T02:13:14.140Z,100973.28
2023-04-19T02:13:45.690Z,100969.47
2023-04-19T02:14:17.336Z,100969.47
2023-04-19T02:14:48.976Z,100978.16
2023-04-19T02:15:20.423Z,100967.78
2023-04-19T02:15:51.892Z,100971.06
2023-04-19T02:16:23.325Z,100972.97
2023-04-19T02:16:54.891Z,100973.03
2023-04-19T02:17:26.436Z,100975.78
2023-04-19T02:17:57.934Z,100975.53
2023-04-19T02:18:29.352Z,100967.09
2023-04-19T02:19:00.774Z,100966.03
2023-04-19T02:19:32.187Z,100969.31
2023-04-19T02:20:03.595Z,100974.44
2023-04-19T02:20:34.997Z,100970.06
2023-04-19T02:21:06.453Z,100971.69
2023-04-19T02:21:37.826Z,100967.00
2023-04-19T02:22:09.273Z,100970.00
2023-04-19T02:22:40.730Z,100971.63
2023-04-19T02:23:12.202Z,100966.72
2023-04-19T02:23:43.558Z,100966.75
2023-04-19T02:24:15.316Z,100960.78
2023-04-19T02:24:46.960Z,100959.19
2023-04-19T02:25:18.398Z,100961.91
2023-04-19T02:25:49.830Z,100965.72
2023-04-19T02:26:21.306Z,100964.88
2023-04-19T02:26:52.726Z,100970.06
2023-04-19T02:27:24.156Z,100969.00
2023-04-19T02:27:55.661Z,100967.69
2023-04-19T02:28:27.039Z,100971.72
2023-04-19T02:28:58.480Z,100967.94
2023-04-19T02:29:29.923Z,100969.31
2023-04-19T02:30:01.375Z,100970.41
2023-04-19T02:30:32.793Z,100972.25
2023-04-19T02:31:04.212Z,100975.78
2023-04-19T02:31:35.634Z,100968.97
2023-04-19T02:32:07.167Z,100975.22
2023-04-19T02:32:38.667Z,100965.72
2023-04-19T02:33:10.163Z,100962.72
2023-04-19T02:33:41.631Z,100963.50
2023-04-19T02:34:13.358Z,100959.97
2023-04-19T02:34:44.967Z,100967.34
2023-04-19T02:35:16.395Z,100969.00
2023-04-19T02:35:47.830Z,100959.75
2023-04-19T02:36:19.275Z,100969.31
2023-04-19T02:36:50.667Z,100968.16
2023-04-19T02:37:22.118Z,100968.75
2023-04-19T02:37:53.535Z,100964.63
2023-04-19T02:38:25.086Z,100962.72
2023-04-19T02:38:56.534Z,100967.94
2023-04-19T02:39:28.017Z,100967.63
2023-04-19T02:39:59.477Z,100964.63
2023-04-19T02:40:30.906Z,100961.88
2023-04-19T02:41:02.401Z,100967.06
2023-04-19T02:41:33.811Z,100964.63
2023-04-19T02:42:05.276Z,100964.63
2023-04-19T02:42:36.681Z,100969.50
2023-04-19T02:43:08.123Z,100968.44
2023-04-19T02:43:39.609Z,100968.75
2023-04-19T02:44:11.019Z,100965.72
2023-04-19T02:44:42.412Z,100963.25
2023-04-19T02:45:13.778Z,100967.88
2023-04-19T02:45:45.205Z,100973.06
2023-04-19T02:46:16.707Z,100967.34
2023-04-19T02:46:48.146Z,100968.13
2023-04-19T02:47:19.587Z,100967.31
2023-04-19T02:47:51.093Z,100964.59
2023-04-19T02:48:22.576Z,100963.25
2023-04-19T02:48:54.034Z,100965.72
2023-04-19T02:49:25.478Z,100967.34
2023-04-19T02:49:56.926Z,100965.22
2023-04-19T02:50:28.434Z,100965.97
2023-04-19T02:50:59.888Z,100963.50
2023-04-19T02:51:31.343Z,100964.59
2023-04-19T02:52:02.819Z,100966.22
2023-04-19T02:52:34.219Z,100964.63
2023-04-19T02:53:05.601Z,100964.38
2023-04-19T02:53:37.052Z,100960.25
2023-04-19T02:54:08.521Z,100964.38
2023-04-19T02:54:39.861Z,100966.59
2023-04-19T02:55:11.324Z,100965.16
2023-04-19T02:55:42.705Z,100966.53
2023-04-19T02:56:14.089Z,100966.53
2023-04-19T02:56:45.499Z,100960.81
2023-04-19T02:57:16.966Z,100963.81
2023-04-19T02:57:48.423Z,100961.63
2023-04-19T02:58:19.879Z,100965.72
2023-04-19T02:58:51.356Z,100965.66
2023-04-19T02:59:22.845Z,100965.66
2023-04-19T02:59:54.324Z,100963.50
2023-04-19T03:00:25.786Z,100959.13
2023-04-19T03:00:57.290Z,100961.06
2023-04-19T03:01:28.785Z,100961.06
2023-04-19T03:02:00.374Z,100960.00
2023-04-19T03:02:31.917Z,100956.78
2023-04-19T03:03:03.515Z,100960.00
2023-04-19T03:03:35.130Z,100962.94
2023-04-19T03:04:06.642Z,100962.94
2023-04-19T03:04:38.172Z,100964.59
2023-04-19T03:05:09.636Z,100966.75
2023-04-19T03:05:41.048Z,100966.50
2023-04-19T03:06:12.428Z,100970.03
2023-04-19T03:06:44.082Z,100964.31
2023-04-19T03:07:15.496Z,100967.06
2023-04-19T03:07:46.886Z,100964.59
2023-04-19T03:08:18.260Z,100976.59
2023-04-19T03:08:49.671Z,100971.38
2023-04-19T03:09:21.118Z,100962.16
2023-04-19T03:09:52.583Z,100964.59
2023-04-19T03:10:24.037Z,100960.47
2023-04-19T03:10:55.434Z,100962.44
2023-04-19T03:11:26.961Z,100963.50
2023-04-19T03:11:58.373Z,100963.75
2023-04-19T03:12:29.884Z,100964.03
2023-04-19T03:13:01.268Z,100967.31
2023-04-19T03:13:32.659Z,100961.88
2023-04-19T03:14:04.106Z,100958.56
2023-04-19T03:14:35.536Z,100957.50
2023-04-19T03:15:07.081Z,100957.50
2023-04-19T03:15:38.554Z,100963.22
2023-04-19T03:16:10.100Z,100962.38
2023-04-19T03:16:41.540Z,100959.13
2023-04-19T03:17:12.975Z,100962.97
2023-04-19T03:17:44.587Z,100958.31
2023-04-19T03:18:16.016Z,100958.06
2023-04-19T03:18:49.352Z,100956.13
2023-04-19T03:19:21.076Z,100961.81
2023-04-19T03:19:52.527Z,100954.78
2023-04-19T03:20:24.010Z,100951.78
2023-04-19T03:20:55.509Z,100951.75
2023-04-19T03:21:26.947Z,100950.91
2023-04-19T03:21:58.430Z,100952.00
2023-04-19T03:22:29.862Z,100953.69
2023-04-19T03:23:01.320Z,100952.59
2023-04-19T03:23:32.688Z,100953.16
2023-04-19T03:24:04.118Z,100950.13
2023-04-19T03:24:37.584Z,100950.41
2023-04-19T03:25:09.615Z,100952.81
2023-04-19T03:25:41.065Z,100951.22
2023-04-19T03:26:12.452Z,100956.16
2023-04-19T03:26:43.900Z,100956.94
2023-04-19T03:27:15.299Z,100951.78
2023-04-19T03:27:46.836Z,100949.06
2023-04-19T03:28:18.286Z,100949.56
2023-04-19T03:28:49.755Z,100950.09
2023-04-19T03:29:21.156Z,100949.28
2023-04-19T03:29:52.568Z,100947.13
2023-04-19T03:30:24.028Z,100945.25
2023-04-19T03:30:55.687Z,100950.69
2023-04-19T03:31:27.208Z,100947.16
2023-04-19T03:31:58.809Z,100941.97
2023-04-19T03:32:30.267Z,100946.59
2023-04-19T03:33:01.778Z,100949.84
2023-04-19T03:33:33.215Z,100946.03
2023-04-19T03:34:04.633Z,100949.84
2023-04-19T03:34:36.070Z,100942.50
2023-04-19T03:35:07.497Z,100942.53
2023-04-19T03:35:38.950Z,100947.41
2023-04-19T03:36:10.393Z,100942.78
2023-04-19T03:36:41.787Z,100950.66
2023-04-19T03:37:13.237Z,100946.28
2023-04-19T03:37:44.616Z,100947.94
2023-04-19T03:38:16.066Z,100945.78
2023-04-19T03:38:47.526Z,100944.13
2023-04-19T03:39:18.918Z,100944.44
2023-04-19T03:39:50.383Z,100939.50
2023-04-19T03:40:21.775Z,100938.94
2023-04-19T03:40:53.191Z,100948.19
2023-04-19T03:41:24.664Z,100940.03
2023-04-19T03:41:56.057Z,100941.66
2023-04-19T03:42:29.027Z,100944.13
2023-04-19T03:43:00.795Z,100941.38
2023-04-19T03:43:32.204Z,100938.94
2023-04-19T03:44:03.652Z,100942.75
2023-04-19T03:44:35.048Z,100940.03
2023-04-19T03:45:06.457Z,100933.50
2023-04-19T03:45:37.894Z,100937.03
2023-04-19T03:46:09.370Z,100939.50
2023-04-19T03:46:40.940Z,100939.75
2023-04-19T03:47:12.638Z,100943.31
2023-04-19T03:47:44.083Z,100936.22
2023-04-19T03:48:15.488Z,100941.66
2023-04-19T03:48:46.919Z,100942.78
2023-04-19T03:49:18.309Z,100939.25
2023-04-19T03:49:49.699Z,100944.13
2023-04-19T03:50:21.131Z,100942.50
2023-04-19T03:50:52.596Z,100940.28
2023-04-19T03:51:24.049Z,100939.75
2023-04-19T03:51:55.489Z,100942.75
2023-04-19T03:52:26.906Z,100941.38
2023-04-19T03:52:58.330Z,100945.47
2023-04-19T03:53:29.735Z,100940.53
2023-04-19T03:54:01.164Z,100939.72
2023-04-19T03:54:32.545Z,100941.63
2023-04-19T03:55:04.046Z,100941.66
2023-04-19T03:55:35.470Z,100940.59
2023-04-19T03:56:06.927Z,100941.16
2023-04-19T03:56:38.378Z,100940.88
2023-04-19T03:57:09.888Z,100938.97
2023-04-19T03:57:41.451Z,100946.28
2023-04-19T03:58:12.937Z,100938.69
2023-04-19T03:58:44.443Z,100943.56
2023-04-19T03:59:16.012Z,100940.03
2023-04-19T03:59:47.477Z,100937.03
2023-04-19T04:00:18.969Z,100936.47
2023-04-19T04:00:50.441Z,100935.97
2023-04-19T04:01:21.886Z,100935.69
2023-04-19T04:01:53.341Z,100937.34
2023-04-19T04:02:24.993Z,100938.16
2023-04-19T04:02:56.765Z,100938.69
2023-04-19T04:03:28.628Z,100935.97
2023-04-19T04:04:02.314Z,100938.13
2023-04-19T04:04:35.771Z,100934.00
2023-04-19T04:05:07.388Z,100933.75
2023-04-19T04:05:38.961Z,100940.84
2023-04-19T04:06:10.545Z,100934.88
2023-04-19T04:06:41.942Z,100938.63
2023-04-19T04:07:13.383Z,100937.25
2023-04-19T04:07:44.869Z,100938.91
2023-04-19T04:08:16.399Z,100935.66
2023-04-19T04:09:51.435Z,100946.38
2023-04-19T04:10:22.624Z,100945.28
2023-04-19T04:10:53.824Z,100945.00
2023-04-19T04:11:25.049Z,100942.78
2023-04-19T04:11:56.247Z,100950.41
2023-04-19T04:12:27.613Z,100946.34
2023-04-19T04:12:59.088Z,100943.34
2023-04-19T04:13:30.468Z,100943.59
2023-04-19T04:14:01.868Z,100953.16
2023-04-19T04:14:33.270Z,100949.06
2023-04-19T04:15:04.715Z,100944.94
2023-04-19T04:15:36.096Z,100949.56
2023-04-19T04:16:07.504Z,100938.94
2023-04-19T04:16:38.926Z,100945.47
2023-04-19T04:17:10.383Z,100947.16
2023-04-19T04:17:41.822Z,100946.28
2023-04-19T04:18:13.374Z,100948.19
2023-04-19T04:18:44.764Z,100954.78
2023-04-19T04:19:16.124Z,100944.38
2023-04-19T04:19:47.473Z,100946.28
2023-04-19T04:20:18.871Z,100947.63
2023-04-19T04:20:50.265Z,100946.81
2023-04-19T04:21:21.693Z,100945.72
2023-04-19T04:21:53.103Z,100944.91
2023-04-19T04:22:24.517Z,100945.47
2023-04-19T04:22:55.912Z,100948.19
2023-04-19T04:23:27.376Z,100941.66
2023-04-19T04:23:58.836Z,100946.03
2023-04-19T04:24:30.192Z,100938.97
2023-04-19T04:25:01.561Z,100947.97
2023-04-19T04:25:32.942Z,100943.91
2023-04-19T04:26:04.354Z,100939.53
2023-04-19T04:26:35.744Z,100946.34
2023-04-19T04:27:07.175Z,100946.88
2023-04-19T04:27:38.575Z,100953.16
2023-04-19T04:28:10.053Z,100944.44
2023-04-19T04:28:41.485Z,100942.25
2023-04-19T04:29:12.887Z,100946.84
2023-04-19T04:29:44.275Z,100947.94
2023-04-19T04:30:15.691Z,100946.03
2023-04-19T04:30:47.138Z,100948.19
2023-04-19T04:31:18.676Z,100947.63
2023-04-19T04:31:50.198Z,100947.38
2023-04-19T04:32:21.698Z,100951.22
2023-04-19T04:32:53.209Z,100952.03
2023-04-19T04:33:24.609Z,100949.03
2023-04-19T04:33:56.074Z,100954.50
2023-04-19T04:34:27.459Z,100958.31
2023-04-19T04:34:58.837Z,100951.22
2023-04-19T04:35:30.267Z,100953.94
2023-04-19T04:36:01.724Z,100958.31
2023-04-19T04:36:33.114Z,100955.88
2023-04-19T04:37:04.556Z,100960.50
2023-04-19T04:37:36.029Z,100961.88
2023-04-19T04:38:17.558Z,100961.88
2023-04-19T04:38:53.142Z,100959.09
2023-04-19T04:39:24.593Z,100953.66
2023-04-19T04:39:55.998Z,100955.28
2023-04-19T04:40:27.388Z,100958.56
2023-04-19T04:40:58.746Z,100960.75
2023-04-19T04:41:30.130Z,100958.28
2023-04-19T04:42:01.591Z,100953.34
2023-04-19T04:42:33.022Z,100956.06
2023-04-19T04:43:04.441Z,100959.66
2023-04-19T04:43:35.908Z,100961.81
2023-04-19T04:44:12.649Z,100956.41
2023-04-19T04:44:44.470Z,100961.88
2023-04-19T04:45:15.842Z,100958.06
2023-04-19T04:45:47.236Z,100962.16
2023-04-19T04:46:18.744Z,100955.06
2023-04-19T04:46:50.175Z,100961.91
2023-04-19T04:47:21.594Z,100956.44
2023-04-19T04:47:53.097Z,100949.34
2023-04-19T04:48:24.507Z,100958.31
2023-04-19T04:48:55.876Z,100962.38
2023-04-19T04:49:27.368Z,100955.31
2023-04-19T04:49:58.776Z,100963.75
2023-04-19T04:50:30.223Z,100957.22
2023-04-19T04:51:01.701Z,100960.78
2023-04-19T04:51:33.083Z,100958.88
2023-04-19T04:52:04.545Z,100966.50
2023-04-19T04:52:35.948Z,100958.88
2023-04-19T04:53:07.370Z,100956.97
2023-04-19T04:53:38.766Z,100957.50
2023-04-19T04:54:10.148Z,100957.50
2023-04-19T04:54:41.579Z,100958.84
2023-04-19T04:55:12.948Z,100957.50
2023-04-19T04:55:44.353Z,100960.22
2023-04-19T04:56:15.780Z,100960.47
2023-04-19T04:56:47.225Z,100959.13
2023-04-19T04:57:18.846Z,100958.56
2023-04-19T04:57:50.277Z,100963.75
2023-04-19T04:58:21.667Z,100959.13
2023-04-19T04:58:53.046Z,100963.50
2023-04-19T04:59:24.443Z,100972.25
2023-04-19T04:59:55.906Z,100969.25
2023-04-19T05:00:27.265Z,100963.25
2023-04-19T05:00:58.693Z,100964.31
2023-04-19T05:01:30.182Z,100971.13
2023-04-19T05:02:01.735Z,100963.50
2023-04-19T05:02:33.307Z,100965.41
2023-04-19T05:03:04.892Z,100965.09
2023-04-19T05:03:36.429Z,100974.66
2023-04-19T05:04:07.864Z,100970.81
2023-04-19T05:04:39.245Z,100968.41
2023-04-19T05:05:10.754Z,100969.75
2023-04-19T05:05:44.354Z,100966.50
2023-04-19T05:06:16.390Z,100968.97
2023-04-19T05:06:47.794Z,100972.19
2023-04-19T05:07:19.327Z,100969.78
2023-04-19T05:07:50.749Z,100964.03
2023-04-19T05:08:22.172Z,100967.06
2023-04-19T05:08:53.554Z,100960.78
2023-04-19T05:09:24.938Z,100965.66
2023-04-19T05:09:56.322Z,100967.06
2023-04-19T05:10:27.739Z,100964.28
2023-04-19T05:10:59.158Z,100958.31
2023-04-19T05:11:30.510Z,100964.84
2023-04-19T05:12:01.905Z,100966.75
2023-04-19T05:12:33.404Z,100964.84
2023-04-19T05:13:04.765Z,100966.22
2023-04-19T05:13:36.229Z,100969.78
2023-04-19T05:14:07.580Z,100966.78
2023-04-19T05:14:39.036Z,100965.94
2023-04-19T05:15:10.455Z,100967.84
2023-04-19T05:15:41.800Z,100970.03
2023-04-19T05:16:13.213Z,100967.56
2023-04-19T05:16:44.745Z,100967.56
2023-04-19T05:17:16.255Z,100967.00
2023-04-19T05:17:47.703Z,100968.91
2023-04-19T05:18:19.126Z,100966.75
2023-04-19T05:18:50.532Z,100970.84
2023-04-19T05:19:21.901Z,100970.84
2023-04-19T05:19:53.256Z,100966.22
2023-04-19T05:20:24.724Z,100965.94
2023-04-19T05:20:56.156Z,100962.94
2023-04-19T05:21:27.562Z,100971.94
2023-04-19T05:21:59.015Z,100967.31
2023-04-19T05:22:30.388Z,100979.28
2023-04-19T05:23:01.841Z,100968.13
2023-04-19T05:23:33.197Z,100972.75
2023-04-19T05:24:04.594Z,100973.81
2023-04-19T05:24:35.949Z,100975.72
2023-04-19T05:25:07.355Z,100977.09
2023-04-19T05:25:38.720Z,100979.56
2023-04-19T05:26:10.133Z,100971.13
2023-04-19T05:26:41.534Z,100971.69
2023-04-19T05:27:12.896Z,100977.13
2023-04-19T05:27:44.292Z,100968.09
2023-04-19T05:28:15.780Z,100974.09
2023-04-19T05:28:47.212Z,100973.03
2023-04-19T05:29:18.562Z,100974.94
2023-04-19T05:29:49.930Z,100968.91
2023-04-19T05:30:21.282Z,100971.91
2023-04-19T05:30:52.691Z,100969.44
2023-04-19T05:31:24.132Z,100972.16
2023-04-19T05:31:55.510Z,100974.94
2023-04-19T05:32:26.901Z,100974.66
2023-04-19T05:32:58.399Z,100967.78
2023-04-19T05:33:29.925Z,100972.41
2023-04-19T05:34:01.481Z,100971.59
2023-04-19T05:34:32.943Z,100971.06
2023-04-19T05:35:04.395Z,100967.28
2023-04-19T05:35:35.793Z,100973.28
2023-04-19T05:36:07.209Z,100971.38
2023-04-19T05:36:38.646Z,100971.34
2023-04-19T05:37:10.037Z,100972.16
2023-04-19T05:37:41.406Z,100966.44
2023-04-19T05:38:12.788Z,100965.88
2023-04-19T05:38:44.237Z,100964.00
2023-04-19T05:39:15.608Z,100970.53
2023-04-19T05:39:46.999Z,100971.38
2023-04-19T05:40:18.393Z,100966.50
2023-04-19T05:40:49.796Z,100967.56
2023-04-19T05:41:21.211Z,100964.59
2023-04-19T05:41:52.628Z,100962.94
2023-04-19T05:42:24.111Z,100964.56
2023-04-19T05:42:55.506Z,100968.09
2023-04-19T05:43:26.944Z,100966.75
2023-04-19T05:43:58.393Z,100964.28
2023-04-19T05:44:29.784Z,100966.50
2023-04-19T05:45:01.732Z,100970.81
2023-04-19T05:45:34.262Z,100971.91
2023-04-19T05:46:05.757Z,100970.56
2023-04-19T05:46:37.344Z,100968.09
2023-04-19T05:47:08.878Z,100969.22
2023-04-19T05:47:40.284Z,100970.00
2023-04-19T05:48:11.687Z,100965.38
2023-04-19T05:48:43.077Z,100965.66
2023-04-19T05:49:14.561Z,100966.19
2023-04-19T05:49:45.986Z,100971.13
2023-04-19T05:50:17.444Z,100963.47
2023-04-19T05:50:48.860Z,100971.13
2023-04-19T05:51:20.317Z,100968.13
2023-04-19T05:51:51.727Z,100967.84
2023-04-19T05:52:23.084Z,100973.81
2023-04-19T05:52:54.515Z,100965.09
2023-04-19T05:53:25.888Z,100964.84
2023-04-19T05:53:57.584Z,100963.47
2023-04-19T05:54:29.217Z,100963.22
2023-04-19T05:55:00.674Z,100970.56
2023-04-19T05:55:32.066Z,100961.03
2023-04-19T05:56:03.458Z,100963.50
2023-04-19T05:56:34.856Z,100963.25
2023-04-19T05:57:06.229Z,100960.78
2023-04-19T05:57:37.628Z,100962.13
2023-04-19T05:58:08.982Z,100966.22
2023-04-19T05:58:40.388Z,100963.75
2023-04-19T05:59:11.809Z,100960.78
2023-04-19T05:59:43.241Z,100962.16
2023-04-19T06:00:14.665Z,100964.84
2023-04-19T06:00:46.078Z,100965.09